KTVC/TVC METAR and TAF weather

Enter ICAO airport designator
Station Type Date Time Source
KTVC METAR 2019/05/20 10:53 UTC NOAA

KTVC 201053Z 31010KT 5SM -DZ BR OVC007 06/05 A2976 RMK AO2 DZB41 SLP081 P0000 T00610050 $


Station Type Date Time Source
KTVC Decoded METAR 2019/05/20 10:53 UTC NOAA

CHERRY CAPITAL AIRPORT, MI, United States (KTVC) 44-44N 085-34W 190M
May 20, 2019 - 06:53 AM EDT / 2019.05.20 1053 UTC
Wind: from the NW (310 degrees) at 12 MPH (10 KT):0
Visibility: 5 mile(s):0
Sky conditions: overcast
Weather: light drizzle; mist
Precipitation last hour: A trace
Temperature: 43.0 F (6.1 C)
Dew Point: 41.0 F (5.0 C)
Relative Humidity: 92%
Pressure (altimeter): 29.76 in. Hg (1007 hPa)
ob: KTVC 201053Z 31010KT 5SM -DZ BR OVC007 06/05 A2976 RMK AO2 DZB41 SLP081 P0000 T00610050
cycle: 11

Station Type Date Time Source
KTVC TAF 2019/05/20 08:04 UTC NOAA

TAF
AMD KTVC 200802Z 2008/2106 25009KT P6SM BKN010 OVC016
TEMPO 2008/2010 4SM -DZ BR OVC008
FM201000 30010G18KT P6SM OVC006
TEMPO 2010/2013 4SM -DZ OVC004
FM201300 32012G20KT P6SM OVC006
FM201500 33013G21KT P6SM OVC012
FM201800 33015G23KT P6SM BKN035
FM202000 33015KT P6SM SCT040
FM210300 30005KT P6SM FEW250

Example: see airport list